Time;durP1;ratioP1;P1;durP2;ratioP2;P2;SDS_P1;SDS_P2;PMS_P1;PMS_P2;Temp;Humidity;BMP_temperature;BMP_pressure;BME280_temperature;BME280_humidity;BME280_pressure;Samples;Min_cycle;Max_cycle;Signal;HPM_P1;HPM_P2
2022/07/08 00:00:52;;;;;;;9.50;7.07;;;;;;;15.61;100.00;94984.44;5061350;28;20052;-69
2022/07/08 00:03:19;;;;;;;11.32;7.93;;;;;;;15.54;100.00;94983.91;5082323;28;20181;-69
2022/07/08 00:05:46;;;;;;;14.90;6.60;;;;;;;15.49;100.00;94977.59;5078363;28;20079;-69
2022/07/08 00:08:13;;;;;;;7.93;6.68;;;;;;;15.45;100.00;94981.78;5082905;28;20276;-69
2022/07/08 00:10:40;;;;;;;14.70;7.90;;;;;;;15.40;100.00;94971.25;5079005;28;20048;-69
2022/07/08 00:13:07;;;;;;;12.57;6.28;;;;;;;15.43;100.00;94973.38;5081032;28;20136;-69
2022/07/08 00:15:34;;;;;;;8.43;5.90;;;;;;;15.44;100.00;94964.44;5079963;28;20028;-69
2022/07/08 00:18:00;;;;;;;7.45;5.75;;;;;;;15.38;100.00;94955.00;5077785;28;20106;-69
2022/07/08 00:20:27;;;;;;;11.98;6.95;;;;;;;15.30;100.00;94958.09;5082302;28;20128;-68
2022/07/08 00:22:54;;;;;;;6.90;6.13;;;;;;;15.18;100.00;94952.28;5078505;27;20875;-69
2022/07/08 00:25:21;;;;;;;9.13;7.10;;;;;;;15.08;100.00;94950.41;5082396;28;20040;-69
2022/07/08 00:27:48;;;;;;;11.43;6.22;;;;;;;15.14;100.00;94969.59;5061390;28;21048;-69
2022/07/08 00:30:15;;;;;;;8.68;6.38;;;;;;;15.09;100.00;94962.50;5082585;28;20040;-69
2022/07/08 00:32:42;;;;;;;7.28;5.75;;;;;;;15.07;100.00;94960.13;5060475;28;20070;-69
2022/07/08 00:35:09;;;;;;;8.50;6.13;;;;;;;15.03;100.00;94948.53;5081027;28;20119;-69
2022/07/08 00:37:36;;;;;;;12.88;6.93;;;;;;;15.00;100.00;94949.06;5060675;28;20560;-69
2022/07/08 00:40:04;;;;;;;8.77;6.07;;;;;;;14.95;100.00;94946.44;5080627;28;20048;-70
2022/07/08 00:42:31;;;;;;;7.60;5.95;;;;;;;14.97;100.00;94946.97;5078733;28;20048;-69
2022/07/08 00:44:58;;;;;;;9.25;6.25;;;;;;;14.92;100.00;94941.69;5079214;28;20044;-69
2022/07/08 00:47:25;;;;;;;7.85;6.18;;;;;;;14.94;100.00;94949.28;5083214;28;20043;-69
2022/07/08 00:49:51;;;;;;;8.45;6.90;;;;;;;14.94;100.00;94955.31;5078341;28;20048;-69
2022/07/08 00:52:19;;;;;;;9.95;6.20;;;;;;;14.88;100.00;94936.16;5082691;28;20060;-69
2022/07/08 00:54:46;;;;;;;11.15;7.40;;;;;;;14.89;100.00;94953.47;5061071;28;21601;-69
2022/07/08 00:57:14;;;;;;;10.85;6.90;;;;;;;14.90;100.00;94943.78;5083120;28;20101;-69
2022/07/08 00:59:42;;;;;;;8.82;6.57;;;;;;;14.91;100.00;94948.00;5080326;28;20055;-69
2022/07/08 01:02:09;;;;;;;10.07;6.18;;;;;;;14.88;100.00;94945.88;5082136;28;20044;-70
2022/07/08 01:04:38;;;;;;;10.68;6.82;;;;;;;14.85;100.00;94946.38;5059679;28;20040;-69
2022/07/08 01:07:06;;;;;;;13.18;6.65;;;;;;;14.82;100.00;94954.72;5057344;28;20043;-70
2022/07/08 01:09:32;;;;;;;8.05;6.22;;;;;;;14.83;100.00;94964.19;5060699;28;20052;-69
2022/07/08 01:12:00;;;;;;;9.27;6.78;;;;;;;14.80;100.00;94948.97;5080556;28;20048;-70
2022/07/08 01:14:27;;;;;;;12.13;5.53;;;;;;;14.86;100.00;94961.84;5082221;28;20099;-69
2022/07/08 01:16:53;;;;;;;7.57;5.68;;;;;;;14.85;100.00;94951.59;5061058;28;20040;-70
2022/07/08 01:19:20;;;;;;;7.20;5.65;;;;;;;14.83;100.00;94937.97;5062689;28;20611;-69
2022/07/08 01:21:47;;;;;;;7.90;5.72;;;;;;;14.94;100.00;94955.31;5078953;28;20509;-69
2022/07/08 01:24:14;;;;;;;6.45;5.10;;;;;;;14.98;100.00;94951.16;5081411;28;21461;-69
2022/07/08 01:26:41;;;;;;;7.70;4.93;;;;;;;15.00;100.00;94943.84;5080274;28;20074;-69
2022/07/08 01:29:08;;;;;;;6.65;5.32;;;;;;;15.05;100.00;94946.47;5081414;28;20043;-69
2022/07/08 01:31:35;;;;;;;6.97;5.10;;;;;;;15.03;100.00;94937.28;5061712;28;20537;-69
2022/07/08 01:34:02;;;;;;;6.60;5.28;;;;;;;15.08;100.00;94940.69;5064470;28;20459;-68
2022/07/08 01:36:29;;;;;;;7.32;5.72;;;;;;;15.08;100.00;94930.22;5084269;28;20036;-69
2022/07/08 01:38:56;;;;;;;7.80;5.45;;;;;;;15.12;100.00;94929.72;5086362;28;20036;-69
2022/07/08 01:41:23;;;;;;;8.32;5.70;;;;;;;15.10;100.00;94933.34;5085837;28;20127;-69
2022/07/08 01:43:50;;;;;;;6.90;5.40;;;;;;;15.10;100.00;94932.59;5087136;28;20044;-68
2022/07/08 01:46:17;;;;;;;7.53;5.95;;;;;;;15.05;100.00;94936.00;5082819;28;20536;-69
2022/07/08 01:48:44;;;;;;;7.50;5.70;;;;;;;15.02;100.00;94931.25;5079496;28;20087;-69
2022/07/08 01:51:11;;;;;;;7.18;5.50;;;;;;;15.09;100.00;94931.81;5083736;28;20051;-70
2022/07/08 01:53:38;;;;;;;6.22;5.00;;;;;;;15.08;100.00;94932.84;5080376;28;20471;-69
2022/07/08 01:56:05;;;;;;;6.43;5.47;;;;;;;15.09;100.00;94937.03;5061198;28;20036;-69
2022/07/08 01:58:31;;;;;;;6.55;4.78;;;;;;;15.09;100.00;94937.03;5078778;28;20044;-70
2022/07/08 02:00:58;;;;;;;8.40;5.28;;;;;;;15.12;100.00;94942.81;5044501;28;20048;-71
2022/07/08 02:03:25;;;;;;;6.88;5.70;;;;;;;15.11;100.00;94939.41;5036546;28;20163;-71
2022/07/08 02:05:52;;;;;;;6.40;5.22;;;;;;;15.10;100.00;94937.81;5038325;28;20041;-70
2022/07/08 02:08:23;;;;;;;8.05;5.53;;;;;;;15.07;100.00;94939.13;5035474;28;20063;-70
2022/07/08 02:13:35;;;;;;;9.52;5.85;;;;;;;14.98;100.00;94951.16;5038107;28;20037;-70
2022/07/08 02:16:03;;;;;;;8.95;6.07;;;;;;;14.97;100.00;94944.34;5038415;28;20045;-70
2022/07/08 02:18:30;;;;;;;8.27;6.10;;;;;;;14.84;100.00;94944.81;5040686;28;20043;-70
2022/07/08 02:20:57;;;;;;;6.85;5.07;;;;;;;14.80;100.00;94943.72;5041052;28;20517;-70
2022/07/08 02:23:24;;;;;;;8.65;5.90;;;;;;;14.79;100.00;94955.25;5025580;28;20052;-69
2022/07/08 02:25:51;;;;;;;8.88;6.07;;;;;;;14.83;100.00;94951.06;5040337;28;20056;-70
2022/07/08 02:28:18;;;;;;;10.82;6.40;;;;;;;14.76;100.00;94947.91;5044085;28;20045;-70
2022/07/08 02:30:45;;;;;;;7.72;6.20;;;;;;;14.77;100.00;94949.47;5041028;28;20045;-70
2022/07/08 02:33:12;;;;;;;9.73;5.60;;;;;;;14.83;100.00;94951.84;5042863;28;20049;-70
2022/07/08 02:35:39;;;;;;;8.10;6.30;;;;;;;14.81;100.00;94950.53;5040137;28;20888;-70
2022/07/08 02:38:06;;;;;;;7.72;5.85;;;;;;;14.84;100.00;94955.28;5043123;28;20045;-70
2022/07/08 02:40:33;;;;;;;7.43;5.53;;;;;;;14.76;100.00;94947.91;5040527;28;20049;-70
2022/07/08 02:43:00;;;;;;;6.00;5.40;;;;;;;14.77;100.00;94960.75;5042055;28;20076;-70
2022/07/08 02:45:27;;;;;;;8.88;6.18;;;;;;;14.65;100.00;94966.19;5042182;28;20039;-70
2022/07/08 02:47:54;;;;;;;6.25;5.10;;;;;;;14.63;100.00;94965.63;5040538;28;20724;-70
2022/07/08 02:50:21;;;;;;;9.60;5.70;;;;;;;14.59;100.00;94959.34;5038225;28;20033;-70
2022/07/08 02:52:47;;;;;;;6.13;5.43;;;;;;;14.54;100.00;94956.66;5043710;28;20045;-70
2022/07/08 02:55:14;;;;;;;7.93;5.88;;;;;;;14.32;100.00;94954.91;5032510;28;20041;-70
2022/07/08 02:57:41;;;;;;;9.57;5.90;;;;;;;14.29;100.00;94965.13;5040066;28;20534;-69
2022/07/08 03:00:09;;;;;;;6.70;5.50;;;;;;;14.21;100.00;94974.22;5059737;28;20040;-68
2022/07/08 03:02:35;;;;;;;12.63;6.15;;;;;;;14.18;100.00;94974.72;5080775;28;20058;-69
2022/07/08 03:05:03;;;;;;;7.45;5.38;;;;;;;14.16;100.00;94971.56;5062171;28;20043;-69
2022/07/08 03:07:30;;;;;;;8.75;5.97;;;;;;;14.12;100.00;94965.25;5080716;28;20040;-69
2022/07/08 03:09:57;;;;;;;8.35;5.93;;;;;;;14.09;100.00;94965.75;5088243;28;20070;-69
2022/07/08 03:12:25;;;;;;;10.48;5.55;;;;;;;13.96;100.00;94966.94;5081500;28;20044;-69
2022/07/08 03:14:53;;;;;;;7.25;6.28;;;;;;;13.96;100.00;94972.19;5084026;28;20554;-69
2022/07/08 03:17:20;;;;;;;11.15;6.80;;;;;;;13.94;100.00;94969.81;5084317;28;20050;-67
2022/07/08 03:19:47;;;;;;;9.02;6.28;;;;;;;13.94;100.00;94972.44;5082356;28;20531;-69
2022/07/08 03:22:15;;;;;;;13.10;6.30;;;;;;;13.93;100.00;94962.97;5063649;28;20072;-68
2022/07/08 03:24:41;;;;;;;9.20;6.95;;;;;;;13.98;100.00;94967.47;5080409;28;20066;-68
2022/07/08 03:27:08;;;;;;;8.43;6.53;;;;;;;14.03;100.00;94972.78;5083239;28;20036;-69
2022/07/08 03:29:35;;;;;;;9.90;7.50;;;;;;;14.01;100.00;94968.81;5080097;28;20052;-70
2022/07/08 03:32:02;;;;;;;9.02;6.53;;;;;;;13.90;100.00;94968.72;5083433;28;20042;-70
2022/07/08 03:34:29;;;;;;;13.00;6.82;;;;;;;13.91;100.00;94975.53;5080113;28;20055;-69
2022/07/08 03:37:02;;;;;;;9.95;6.65;;;;;;;13.96;100.00;94977.41;5064213;28;20051;-69
2022/07/08 03:39:29;;;;;;;8.85;6.25;;;;;;;13.95;100.00;94976.63;5080756;28;20044;-70
2022/07/08 03:41:56;;;;;;;14.70;7.13;;;;;;;14.01;100.00;94974.03;5083304;28;20048;-70
2022/07/08 03:44:23;;;;;;;9.45;7.07;;;;;;;14.04;100.00;94984.03;5060452;28;20856;-69
2022/07/08 03:46:50;;;;;;;8.07;6.50;;;;;;;14.05;100.00;94986.41;5081321;28;20046;-69
2022/07/08 03:49:17;;;;;;;14.10;7.38;;;;;;;14.09;100.00;94982.25;5081637;28;20085;-69
2022/07/08 03:51:44;;;;;;;9.45;7.10;;;;;;;14.15;100.00;94969.97;5079839;28;20047;-69
2022/07/08 03:54:10;;;;;;;10.27;7.65;;;;;;;14.19;100.00;94976.31;5079183;28;20054;-69
2022/07/08 03:56:37;;;;;;;11.18;7.75;;;;;;;14.29;100.00;94976.38;5078661;28;20683;-69
2022/07/08 03:59:04;;;;;;;11.75;7.85;;;;;;;14.44;100.00;94982.78;5081365;28;20036;-69
2022/07/08 04:01:31;;;;;;;8.98;6.65;;;;;;;14.56;100.00;94983.38;5079086;28;20082;-69
2022/07/08 04:03:58;;;;;;;10.85;6.57;;;;;;;14.71;100.00;94978.28;5081046;28;20056;-69
2022/07/08 04:06:25;;;;;;;12.25;7.28;;;;;;;14.89;100.00;94981.50;5077231;28;20036;-69
2022/07/08 04:08:52;;;;;;;13.30;7.47;;;;;;;15.02;100.00;94988.94;5061430;28;20623;-69
2022/07/08 04:11:19;;;;;;;12.50;6.85;;;;;;;15.09;100.00;94973.78;5079719;28;20048;-70
2022/07/08 04:13:48;;;;;;;10.43;7.45;;;;;;;15.28;100.00;94975.94;5063707;28;20525;-69
2022/07/08 04:16:15;;;;;;;9.43;7.43;;;;;;;15.17;100.00;94942.84;5079900;28;20036;-70
2022/07/08 04:18:42;;;;;;;11.00;7.28;;;;;;;15.53;100.00;94977.09;5081086;28;20047;-70
2022/07/08 04:21:09;;;;;;;12.63;7.15;;;;;;;15.70;100.00;94988.16;5081123;28;20744;-70
2022/07/08 04:23:37;;;;;;;8.77;6.95;;;;;;;15.78;100.00;94984.28;5082416;28;20585;-70
2022/07/08 04:26:04;;;;;;;11.68;7.18;;;;;;;15.77;100.00;94980.88;5083632;28;20055;-70
2022/07/08 04:28:31;;;;;;;8.05;6.38;;;;;;;15.91;100.00;94993.47;5063736;28;20036;-70
2022/07/08 04:30:58;;;;;;;10.20;7.65;;;;;;;15.91;100.00;94982.97;5085336;28;20126;-70
2022/07/08 04:33:26;;;;;;;8.65;6.93;;;;;;;15.97;100.00;94981.94;5077648;28;20125;-70
2022/07/08 04:35:52;;;;;;;12.07;8.32;;;;;;;16.07;100.00;94987.19;5064712;28;20032;-70
2022/07/08 04:38:19;;;;;;;8.88;7.05;;;;;;;16.14;100.00;94987.72;5079179;28;20709;-70
2022/07/08 04:40:46;;;;;;;10.20;7.45;;;;;;;16.13;100.00;94983.50;5081408;28;20055;-70
2022/07/08 04:43:13;;;;;;;11.35;8.23;;;;;;;16.25;100.00;94997.19;5083817;28;20043;-70
2022/07/08 04:45:47;;;;;;;8.95;7.32;;;;;;;16.33;100.00;94987.22;5065204;28;20080;-69
2022/07/08 04:48:14;;;;;;;11.73;7.60;;;;;;;16.52;100.00;94985.63;5062010;28;20082;-73
2022/07/08 04:50:41;;;;;;;11.27;8.45;;;;;;;16.69;100.00;94989.81;5064493;28;20048;-70
2022/07/08 04:53:08;;;;;;;9.27;7.55;;;;;;;16.90;100.00;94986.13;5069615;28;20139;-70
2022/07/08 04:55:35;;;;;;;10.45;8.00;;;;;;;17.02;100.00;94974.53;5086061;28;20404;-71
2022/07/08 04:58:04;;;;;;;10.35;8.43;;;;;;;17.25;100.00;94984.47;5105428;27;20043;-70
2022/07/08 05:00:32;;;;;;;9.73;7.40;;;;;;;17.42;100.00;94993.88;5086480;28;20048;-70
2022/07/08 05:03:00;;;;;;;9.63;8.57;;;;;;;17.55;100.00;94988.78;5072375;28;20032;-70
2022/07/08 05:05:27;;;;;;;11.80;7.18;;;;;;;17.59;100.00;94978.50;5090579;28;20052;-70
2022/07/08 05:07:56;;;;;;;11.18;8.77;;;;;;;17.77;100.00;94985.81;5082330;28;20063;-70
2022/07/08 05:10:24;;;;;;;9.98;7.53;;;;;;;17.86;100.00;94987.88;5084167;28;20093;-70
2022/07/08 05:12:53;;;;;;;9.43;7.93;;;;;;;17.98;100.00;94985.72;5090733;28;20050;-71
2022/07/08 05:15:20;;;;;;;8.70;7.38;;;;;;;18.08;100.00;94985.66;5083256;28;20039;-71
2022/07/08 05:17:52;;;;;;;11.30;8.32;;;;;;;18.17;100.00;94987.69;5063815;28;20071;-71
2022/07/08 05:20:20;;;;;;;8.68;7.78;;;;;;;18.35;100.00;94984.41;5074879;28;20040;-71
2022/07/08 05:22:47;;;;;;;9.02;7.43;;;;;;;18.46;100.00;94980.63;5059145;28;20044;-72
2022/07/08 05:25:14;;;;;;;16.50;7.80;;;;;;;18.68;100.00;94982.00;5057480;28;20047;-71
2022/07/08 05:27:41;;;;;;;12.20;7.45;;;;;;;18.81;100.00;94978.75;5078569;28;20044;-71
2022/07/08 05:30:10;;;;;;;10.43;7.90;;;;;;;18.94;100.00;94979.94;5078419;28;20565;-71
2022/07/08 05:32:38;;;;;;;9.20;7.95;;;;;;;19.02;100.00;94975.91;5075256;28;20043;-71
2022/07/08 05:35:06;;;;;;;10.07;8.32;;;;;;;19.15;100.00;94983.16;5079791;28;20072;-71
2022/07/08 05:37:35;;;;;;;10.77;7.60;;;;;;;19.27;100.00;94986.19;5077721;28;20046;-71
2022/07/08 05:40:02;;;;;;;15.35;8.68;;;;;;;19.09;100.00;94981.63;5082323;28;20044;-71
2022/07/08 05:42:29;;;;;;;9.88;8.25;;;;;;;19.06;100.00;94982.19;5083782;28;20071;-71
2022/07/08 05:44:56;;;;;;;11.27;8.55;;;;;;;19.18;100.00;94979.94;5079298;28;20092;-71
2022/07/08 05:47:23;;;;;;;9.60;7.88;;;;;;;19.29;100.00;94976.13;5078623;28;20523;-71
2022/07/08 05:49:50;;;;;;;9.30;8.30;;;;;;;19.48;100.00;94978.00;5083670;28;20039;-71
2022/07/08 05:52:16;;;;;;;9.90;7.78;;;;;;;19.61;100.00;94981.81;5078440;28;20260;-72
2022/07/08 05:54:45;;;;;;;10.50;9.02;;;;;;;19.58;100.00;94977.88;5080238;28;20051;-71
2022/07/08 05:57:14;;;;;;;12.57;8.25;;;;;;;19.70;100.00;94976.66;5061974;28;20044;-71
2022/07/08 05:59:42;;;;;;;9.95;7.80;;;;;;;19.92;100.00;94982.22;5058944;28;20122;-71
2022/07/08 06:02:10;;;;;;;10.52;7.80;;;;;;;20.15;100.00;94979.78;5076322;28;20593;-72
2022/07/08 06:04:37;;;;;;;9.77;8.50;;;;;;;19.95;100.00;94986.13;5081280;28;20032;-71
2022/07/08 06:07:04;;;;;;;9.27;8.30;;;;;;;20.04;100.00;94985.22;5058526;28;20539;-71
2022/07/08 06:09:33;;;;;;;12.73;8.70;;;;;;;20.08;100.00;94974.88;5079249;28;20444;-71
2022/07/08 06:12:00;;;;;;;10.95;8.98;;;;;;;20.15;100.00;94980.56;5061815;28;20044;-72
2022/07/08 06:14:27;;;;;;;11.40;9.32;;;;;;;20.14;100.00;94976.34;5058735;28;20789;-71
2022/07/08 06:16:53;;;;;;;14.05;9.20;;;;;;;20.17;100.00;94981.06;5087371;28;20046;-71
2022/07/08 06:19:22;;;;;;;19.05;9.00;;;;;;;19.98;100.00;94981.06;5058079;28;20044;-71
2022/07/08 06:21:50;;;;;;;9.75;8.25;;;;;;;20.04;100.00;94984.41;5079479;28;20523;-71
2022/07/08 06:24:18;;;;;;;11.77;9.32;;;;;;;20.22;100.00;94993.41;5076792;28;20047;-71
2022/07/08 06:26:46;;;;;;;9.75;8.20;;;;;;;20.36;100.00;94981.03;5078197;28;20058;-71
2022/07/08 06:29:14;;;;;;;10.00;8.20;;;;;;;20.53;99.92;94974.44;5061609;28;20639;-71
2022/07/08 06:31:41;;;;;;;10.57;8.10;;;;;;;20.49;98.63;94979.53;5075457;28;20055;-71
2022/07/08 06:34:08;;;;;;;12.98;8.82;;;;;;;20.48;99.25;94977.94;5076710;28;20044;-71
2022/07/08 06:36:35;;;;;;;16.10;10.02;;;;;;;20.33;98.92;94965.75;5080637;28;20043;-70
2022/07/08 06:39:02;;;;;;;12.93;9.95;;;;;;;20.48;100.00;94967.34;5080491;28;20040;-70
2022/07/08 06:41:31;;;;;;;12.00;10.32;;;;;;;20.54;100.00;94949.53;5056504;28;20678;-71
2022/07/08 06:43:58;;;;;;;12.50;9.02;;;;;;;20.77;100.00;94959.22;5082440;28;20814;-71
2022/07/08 06:46:25;;;;;;;14.45;10.35;;;;;;;20.79;98.09;94957.06;5077061;28;20036;-71
2022/07/08 06:48:53;;;;;;;11.45;9.32;;;;;;;21.06;97.12;94963.44;5080529;28;20043;-71
2022/07/08 06:51:20;;;;;;;12.23;9.52;;;;;;;21.24;96.97;94950.41;5057626;28;20063;-71
2022/07/08 06:56:33;;;;;;;14.77;7.90;;;;;;;21.44;92.45;94952.66;5076729;28;20036;-71
2022/07/08 06:59:00;;;;;;;10.88;8.10;;;;;;;21.52;93.00;94946.69;5079275;28;20101;-71
2022/07/08 07:01:26;;;;;;;12.38;8.70;;;;;;;21.69;94.00;94945.28;5059993;28;20127;-71
2022/07/08 07:03:53;;;;;;;10.00;8.05;;;;;;;21.85;92.73;94938.56;5080096;28;20039;-71
2022/07/08 07:06:21;;;;;;;10.48;7.68;;;;;;;21.87;92.73;94931.06;5061274;28;20039;-71
2022/07/08 07:08:48;;;;;;;10.77;8.38;;;;;;;22.10;92.91;94931.88;5081139;28;20039;-71
2022/07/08 07:11:15;;;;;;;8.88;7.32;;;;;;;22.29;91.70;94926.44;5083726;28;20048;-71
2022/07/08 07:13:42;;;;;;;10.50;8.75;;;;;;;22.45;91.97;94931.34;5063598;28;20048;-70
2022/07/08 07:16:09;;;;;;;8.45;6.82;;;;;;;22.50;90.04;94936.53;5084822;28;20040;-71
2022/07/08 07:18:36;;;;;;;10.85;7.75;;;;;;;22.61;90.38;94929.09;5080366;28;20097;-71
2022/07/08 07:21:04;;;;;;;11.18;7.22;;;;;;;22.81;90.54;94925.91;5081656;28;20040;-71
2022/07/08 07:23:31;;;;;;;10.77;7.03;;;;;;;22.98;88.72;94925.22;5079648;28;20093;-70
2022/07/08 07:25:58;;;;;;;9.63;7.50;;;;;;;23.02;88.93;94930.69;5083458;28;20044;-70
2022/07/08 07:28:25;;;;;;;9.90;6.20;;;;;;;22.83;87.54;94922.94;5062204;28;20059;-71
2022/07/08 07:30:53;;;;;;;7.40;6.55;;;;;;;22.89;88.28;94927.06;5081178;28;20047;-72
2022/07/08 07:33:19;;;;;;;7.03;6.07;;;;;;;23.04;86.16;94924.00;5080550;28;20475;-72
2022/07/08 07:35:47;;;;;;;9.20;6.30;;;;;;;23.13;86.01;94921.38;5062206;28;20521;-71
2022/07/08 07:38:14;;;;;;;6.82;5.85;;;;;;;23.27;84.85;94921.25;5082018;28;20046;-71
2022/07/08 07:40:40;;;;;;;7.45;6.05;;;;;;;23.35;85.71;94923.13;5080326;28;20044;-71
2022/07/08 07:43:07;;;;;;;8.68;6.22;;;;;;;23.56;83.25;94938.50;5064799;28;20052;-71
2022/07/08 07:45:34;;;;;;;7.07;6.07;;;;;;;23.59;82.01;94932.59;5081378;28;20406;-72
2022/07/08 07:48:01;;;;;;;6.03;5.40;;;;;;;23.75;82.49;94935.56;5083789;28;20055;-72
2022/07/08 07:50:28;;;;;;;7.18;5.57;;;;;;;24.03;80.48;94922.75;5080202;28;20040;-72
2022/07/08 07:52:55;;;;;;;7.65;5.15;;;;;;;24.02;77.12;94923.84;5068221;28;20040;-72
2022/07/08 07:55:22;;;;;;;10.65;5.75;;;;;;;23.92;76.93;94916.19;5079722;28;20751;-71
2022/07/08 07:57:49;;;;;;;9.32;5.93;;;;;;;24.20;77.39;94925.41;5081346;28;20046;-72
2022/07/08 08:00:17;;;;;;;6.40;5.38;;;;;;;24.37;77.56;94923.81;5061751;28;20051;-71
2022/07/08 08:02:44;;;;;;;5.65;5.05;;;;;;;24.64;76.66;94927.25;5080710;28;20089;-70
2022/07/08 08:05:12;;;;;;;6.40;5.57;;;;;;;24.91;75.40;94937.47;5082021;28;20591;-71
2022/07/08 08:07:40;;;;;;;5.97;5.38;;;;;;;25.02;72.98;94939.78;5060213;28;20568;-72
2022/07/08 08:10:08;;;;;;;6.35;5.35;;;;;;;24.98;73.02;94943.09;5063128;28;20044;-70
2022/07/08 08:12:35;;;;;;;7.68;6.55;;;;;;;25.16;73.29;94937.69;5079705;28;20048;-71
2022/07/08 08:15:02;;;;;;;6.45;5.25;;;;;;;25.08;72.47;94943.84;5067182;28;20058;-70
2022/07/08 08:17:35;;;;;;;9.57;5.78;;;;;;;24.84;73.81;94937.19;5083946;28;20067;-70
2022/07/08 08:20:07;;;;;;;7.40;5.10;;;;;;;25.05;72.53;94936.47;5065772;28;20127;-71
2022/07/08 08:22:35;;;;;;;10.27;5.63;;;;;;;25.31;72.85;94933.72;5080210;28;20028;-71
2022/07/08 08:25:17;;;;;;;6.13;4.78;;;;;;;25.52;68.87;94929.19;5069477;28;20494;-70
2022/07/08 08:27:44;;;;;;;6.80;4.93;;;;;;;25.42;69.56;94928.78;5075061;28;20032;-71
2022/07/08 08:30:12;;;;;;;4.95;4.45;;;;;;;25.66;69.33;94934.31;5083398;28;20035;-71
2022/07/08 08:32:39;;;;;;;5.25;4.75;;;;;;;25.97;68.95;94943.81;5082279;28;20423;-71
2022/07/08 08:35:07;;;;;;;6.82;4.32;;;;;;;26.07;66.47;94935.44;5092844;28;20071;-71
2022/07/08 08:37:36;;;;;;;7.35;4.93;;;;;;;26.40;63.96;94929.31;5062768;28;20044;-71
2022/07/08 08:40:05;;;;;;;6.00;5.40;;;;;;;26.65;63.66;94924.03;5082595;28;20079;-71
2022/07/08 08:42:32;;;;;;;7.25;5.07;;;;;;;26.99;61.03;94917.53;5079279;28;20123;-71
2022/07/08 08:44:59;;;;;;;8.68;4.22;;;;;;;27.07;57.71;94929.22;5060844;28;20284;-71
2022/07/08 08:47:31;;;;;;;4.57;4.10;;;;;;;27.20;58.26;94928.09;5081632;28;20517;-71
2022/07/08 08:52:50;;;;;;;4.15;3.65;;;;;;;27.78;54.42;94929.84;5081591;28;20272;-71
2022/07/08 08:55:27;;;;;;;2.90;2.55;;;;;;;27.65;52.60;94931.78;5079610;28;20152;-72
2022/07/08 08:58:05;;;;;;;5.32;2.92;;;;;;;27.24;51.86;94929.03;5081290;28;20040;-71
2022/07/08 09:00:33;;;;;;;3.10;2.58;;;;;;;26.93;53.04;94916.19;5078824;28;20048;-71
2022/07/08 09:03:02;;;;;;;7.80;2.40;;;;;;;26.89;53.01;94916.06;5083011;28;20047;-71
2022/07/08 09:05:30;;;;;;;4.45;2.70;;;;;;;26.81;51.91;94911.63;5079872;28;20100;-71
2022/07/08 09:07:57;;;;;;;3.67;2.60;;;;;;;27.15;53.20;94892.81;5080808;28;20064;-71
2022/07/08 09:10:24;;;;;;;3.08;2.58;;;;;;;27.26;52.17;94888.56;5080940;28;20047;-71
2022/07/08 09:13:10;;;;;;;4.63;3.13;;;;;;;27.75;51.98;94893.88;5065560;28;20044;-71
2022/07/08 09:15:46;;;;;;;4.38;3.20;;;;;;;27.91;49.26;94901.97;5060854;28;21504;-71
2022/07/08 09:18:15;;;;;;;4.30;3.10;;;;;;;28.30;50.72;94898.81;5083488;28;20044;-71
2022/07/08 09:20:50;;;;;;;3.80;3.00;;;;;;;28.52;49.09;94902.81;5080588;28;20044;-71
2022/07/08 09:23:19;;;;;;;3.95;2.80;;;;;;;28.65;46.33;94908.91;5082343;28;20048;-72
2022/07/08 09:25:49;;;;;;;3.35;2.97;;;;;;;28.17;45.26;94892.72;5078315;28;20040;-71
2022/07/08 09:28:27;;;;;;;3.22;2.92;;;;;;;27.77;46.52;94888.94;5082126;28;20031;-72
2022/07/08 09:30:56;;;;;;;3.17;2.80;;;;;;;27.99;47.68;94884.22;5078388;28;20044;-71
2022/07/08 09:33:26;;;;;;;4.03;2.80;;;;;;;28.23;46.58;94886.00;5084329;28;20508;-71
2022/07/08 09:35:56;;;;;;;4.03;2.78;;;;;;;28.56;46.82;94887.66;5059964;28;20126;-71
2022/07/08 09:38:24;;;;;;;3.72;3.33;;;;;;;28.87;44.88;94886.09;5077989;28;20106;-72
2022/07/08 09:40:59;;;;;;;5.72;2.90;;;;;;;28.78;44.66;94886.28;5043745;28;20040;-71
2022/07/08 09:43:26;;;;;;;3.20;2.42;;;;;;;29.35;41.73;94894.88;5058622;28;20054;-71
2022/07/08 09:45:54;;;;;;;2.83;2.42;;;;;;;29.40;41.79;94867.78;5081137;28;20050;-71
2022/07/08 09:48:29;;;;;;;5.25;2.50;;;;;;;29.80;40.92;94876.66;5077122;28;20152;-71
2022/07/08 09:50:58;;;;;;;3.00;2.55;;;;;;;30.14;41.25;94875.03;5062348;28;20044;-71
2022/07/08 09:53:31;;;;;;;2.67;2.08;;;;;;;30.07;40.32;94875.69;5076394;28;20117;-72
2022/07/08 09:56:01;;;;;;;2.58;2.08;;;;;;;29.85;41.19;94871.03;5079972;28;20036;-71
2022/07/08 09:58:30;;;;;;;2.00;1.80;;;;;;;29.86;40.02;94873.34;5059042;28;20513;-71
2022/07/08 10:01:00;;;;;;;2.20;1.95;;;;;;;29.79;39.93;94875.13;5079601;28;20048;-71
2022/07/08 10:03:28;;;;;;;3.00;2.00;;;;;;;29.86;41.32;94873.34;5076503;28;20117;-72
2022/07/08 10:05:55;;;;;;;3.63;2.08;;;;;;;30.11;39.64;94870.38;5080592;28;20050;-72
2022/07/08 10:08:26;;;;;;;4.55;4.00;;;;;;;29.70;37.45;94867.25;5075163;28;20044;-71
2022/07/08 10:10:57;;;;;;;2.83;2.10;;;;;;;29.99;36.79;94867.84;5060761;28;20043;-71
2022/07/08 10:13:25;;;;;;;2.33;2.08;;;;;;;30.16;37.43;94856.69;5063090;28;20570;-71
2022/07/08 10:15:57;;;;;;;2.60;2.40;;;;;;;30.18;38.52;94854.41;5080927;28;20142;-72
2022/07/08 10:18:36;;;;;;;3.72;1.88;;;;;;;30.47;38.46;94860.31;5080400;28;20036;-72
2022/07/08 10:21:06;;;;;;;3.65;1.90;;;;;;;30.98;37.03;94846.56;5082136;28;20040;-72
2022/07/08 10:23:38;;;;;;;2.38;1.95;;;;;;;31.66;34.15;94849.44;5077364;28;20036;-72
2022/07/08 10:26:06;;;;;;;1.88;1.77;;;;;;;32.16;33.77;94847.34;5059016;28;20063;-72
2022/07/08 10:28:39;;;;;;;3.17;1.80;;;;;;;32.56;34.57;94816.13;5080077;28;20044;-70
2022/07/08 10:31:26;;;;;;;2.10;1.70;;;;;;;33.05;32.37;94848.50;5076997;28;20036;-71
2022/07/08 10:34:02;;;;;;;1.90;1.50;;;;;;;33.18;31.46;94843.59;5077124;28;20043;-70
2022/07/08 10:36:41;;;;;;;1.33;1.13;;;;;;;33.30;30.38;94841.34;5079010;28;20040;-71
2022/07/08 10:39:11;;;;;;;1.70;1.48;;;;;;;33.29;28.81;94839.78;5065598;28;20044;-72
2022/07/08 10:41:39;;;;;;;1.90;1.70;;;;;;;33.00;31.74;94843.44;5063735;28;20067;-72
2022/07/08 10:44:07;;;;;;;2.65;1.98;;;;;;;32.47;32.09;94834.53;5084440;28;20043;-71
2022/07/08 10:46:34;;;;;;;2.88;1.58;;;;;;;31.80;34.10;94830.75;5081581;28;20431;-70
2022/07/08 10:49:01;;;;;;;3.92;1.90;;;;;;;31.00;34.42;94828.13;5083280;28;20525;-71
2022/07/08 10:51:31;;;;;;;7.25;1.77;;;;;;;30.74;34.26;94836.16;5080462;28;20109;-71
2022/07/08 10:54:08;;;;;;;1.92;1.80;;;;;;;30.67;33.87;94837.59;5083446;28;20132;-71
2022/07/08 10:56:55;;;;;;;3.17;2.28;;;;;;;30.00;37.99;94842.53;5076586;28;20685;-70
2022/07/08 10:59:29;;;;;;;5.47;3.85;;;;;;;29.53;38.79;94825.50;5083572;28;20191;-70
2022/07/08 11:02:14;;;;;;;2.00;1.80;;;;;;;29.41;35.22;94837.16;5055435;28;20036;-71
2022/07/08 11:04:41;;;;;;;1.70;1.60;;;;;;;29.39;35.30;94827.88;5082740;28;20553;-71
2022/07/08 11:07:24;;;;;;;1.67;1.58;;;;;;;29.40;35.57;94827.53;5083375;28;20144;-71
2022/07/08 11:10:03;;;;;;;2.33;2.10;;;;;;;29.36;36.72;94824.00;5064841;28;20040;-71
2022/07/08 11:12:36;;;;;;;6.35;1.55;;;;;;;29.57;35.13;94826.38;5086054;28;20068;-71
2022/07/08 11:15:12;;;;;;;5.55;2.20;;;;;;;29.57;36.19;94814.84;5089432;28;20043;-71
2022/07/08 11:17:41;;;;;;;2.45;1.70;;;;;;;29.49;35.66;94825.44;5085892;28;20036;-71
2022/07/08 11:20:13;;;;;;;2.60;2.13;;;;;;;29.22;36.59;94815.66;5088355;28;20050;-71
2022/07/08 11:22:42;;;;;;;2.88;2.30;;;;;;;29.01;37.04;94824.78;5065582;28;20032;-71
2022/07/08 11:25:16;;;;;;;2.17;1.83;;;;;;;28.90;37.44;94813.81;5059280;28;20055;-71
2022/07/08 11:27:43;;;;;;;1.92;1.70;;;;;;;28.88;36.57;94824.09;5082037;28;20522;-71
2022/07/08 11:30:15;;;;;;;5.32;2.58;;;;;;;28.54;36.45;94809.50;5080452;28;20166;-71
2022/07/08 11:32:46;;;;;;;2.92;2.30;;;;;;;28.09;38.56;94802.63;5082379;28;20040;-72
2022/07/08 11:35:13;;;;;;;3.08;1.98;;;;;;;27.80;39.04;94801.84;5064798;28;20978;-71
2022/07/08 11:37:46;;;;;;;2.28;1.90;;;;;;;27.73;39.56;94801.66;5060276;28;20416;-72
2022/07/08 11:40:18;;;;;;;3.55;2.20;;;;;;;27.64;39.23;94791.91;5084919;28;20068;-71